Time;durP1;ratioP1;P1;durP2;ratioP2;P2;SDS_P1;SDS_P2;PMS_P1;PMS_P2;Temp;Humidity;BMP_temperature;BMP_pressure;BME280_temperature;BME280_humidity;BME280_pressure;Samples;Min_cycle;Max_cycle;Signal;HPM_P1;HPM_P2
2021/10/17 00:01:39;;;;;;;;;;;7.60;99.90;;;;;;5013177;28;19909;-76
2021/10/17 00:04:04;;;;;;;;;;;7.60;99.90;;;;;;4995572;28;19905;-75
2021/10/17 00:06:30;;;;;;;;;;;7.50;99.90;;;;;;5012554;28;20383;-75
2021/10/17 00:08:56;;;;;;;;;;;7.40;99.90;;;;;;5013060;28;19909;-75
2021/10/17 00:11:22;;;;;;;;;;;7.40;99.90;;;;;;5013079;28;20353;-75
2021/10/17 00:13:48;;;;;;;;;;;7.40;99.90;;;;;;4995484;28;19905;-75
2021/10/17 00:16:14;;;;;;;;;;;7.40;99.90;;;;;;5012854;28;19913;-75
2021/10/17 00:18:39;;;;;;;;;;;7.40;99.90;;;;;;5012779;28;20375;-75
2021/10/17 00:21:05;;;;;;;;;;;7.40;99.90;;;;;;5012892;28;19978;-75
2021/10/17 00:23:30;;;;;;;;;;;7.40;99.90;;;;;;4995170;28;20313;-75
2021/10/17 00:25:56;;;;;;;;;;;7.30;99.90;;;;;;4978980;28;19909;-75
2021/10/17 00:28:22;;;;;;;;;;;7.00;99.90;;;;;;4995173;28;19905;-75
2021/10/17 00:30:48;;;;;;;;;;;7.10;99.90;;;;;;4979005;28;20242;-75
2021/10/17 00:33:13;;;;;;;;;;;7.10;99.90;;;;;;4995211;28;19913;-75
2021/10/17 00:35:40;;;;;;;;;;;7.00;99.90;;;;;;5012527;28;20268;-75
2021/10/17 00:38:06;;;;;;;;;;;6.90;99.90;;;;;;4995022;28;20272;-75
2021/10/17 00:40:32;;;;;;;;;;;7.00;99.90;;;;;;4995040;28;20007;-76
2021/10/17 00:42:57;;;;;;;;;;;7.00;99.90;;;;;;4994989;28;20012;-75
2021/10/17 00:45:27;;;;;;;;;;;7.10;99.90;;;;;;4994743;28;20300;-75
2021/10/17 00:47:54;;;;;;;;;;;7.10;99.90;;;;;;5012548;28;19959;-75
2021/10/17 00:50:19;;;;;;;;;;;7.10;99.90;;;;;;4994866;28;19951;-75
2021/10/17 00:52:45;;;;;;;;;;;7.30;99.90;;;;;;5012548;28;19949;-75
2021/10/17 00:55:16;;;;;;;;;;;7.30;99.90;;;;;;5012325;28;19912;-75
2021/10/17 00:57:43;;;;;;;;;;;7.30;99.90;;;;;;5012484;28;19912;-76
2021/10/17 01:00:09;;;;;;;;;;;7.40;99.90;;;;;;4994901;28;19905;-75
2021/10/17 01:02:35;;;;;;;;;;;7.30;99.90;;;;;;5012434;28;19909;-75
2021/10/17 01:05:00;;;;;;;;;;;7.50;99.90;;;;;;5012237;28;19906;-75
2021/10/17 01:07:26;;;;;;;;;;;7.50;99.90;;;;;;4978652;28;20008;-76
2021/10/17 01:09:52;;;;;;;;;;;7.50;99.90;;;;;;4994648;28;19905;-75
2021/10/17 01:12:17;;;;;;;;;;;7.40;99.90;;;;;;4978513;28;19913;-76
2021/10/17 01:14:43;;;;;;;;;;;7.30;99.90;;;;;;4994445;28;19906;-75
2021/10/17 01:17:09;;;;;;;;;;;7.30;99.90;;;;;;4994642;28;19905;-75
2021/10/17 01:19:34;;;;;;;;;;;7.30;99.90;;;;;;4996352;28;20047;-75
2021/10/17 01:22:02;;;;;;;;;;;7.30;99.90;;;;;;5016122;28;19910;-77
2021/10/17 01:24:27;;;;;;;;;;;7.30;99.90;;;;;;5015991;28;20000;-75
2021/10/17 01:26:53;;;;;;;;;;;7.40;99.90;;;;;;4998522;28;19949;-75
2021/10/17 01:29:19;;;;;;;;;;;7.40;99.90;;;;;;5016003;28;19991;-74
2021/10/17 01:31:50;;;;;;;;;;;7.40;99.90;;;;;;5016010;28;19905;-75
2021/10/17 01:34:16;;;;;;;;;;;7.50;99.90;;;;;;5016043;28;19905;-75
2021/10/17 01:36:42;;;;;;;;;;;7.40;99.90;;;;;;4998198;28;19912;-75
2021/10/17 01:39:09;;;;;;;;;;;7.40;99.90;;;;;;4982064;28;19909;-75
2021/10/17 01:41:35;;;;;;;;;;;7.30;99.90;;;;;;4998204;28;19909;-76
2021/10/17 01:44:01;;;;;;;;;;;7.30;99.90;;;;;;5015775;28;19905;-75
2021/10/17 01:46:27;;;;;;;;;;;7.20;99.90;;;;;;4997936;28;19913;-75
2021/10/17 01:48:53;;;;;;;;;;;7.10;99.90;;;;;;5015647;28;20409;-75
2021/10/17 01:51:18;;;;;;;;;;;7.10;99.90;;;;;;5015694;28;20000;-75
2021/10/17 01:53:45;;;;;;;;;;;7.10;99.90;;;;;;5015701;28;19905;-75
2021/10/17 01:56:10;;;;;;;;;;;7.10;99.90;;;;;;5015364;28;19905;-75
2021/10/17 01:58:36;;;;;;;;;;;7.00;99.90;;;;;;4997893;28;19909;-75
2021/10/17 02:01:02;;;;;;;;;;;7.00;99.90;;;;;;5015430;28;19909;-75
2021/10/17 02:03:28;;;;;;;;;;;6.90;99.90;;;;;;5015372;28;19909;-75
2021/10/17 02:05:53;;;;;;;;;;;6.70;99.90;;;;;;4997644;28;19913;-75
2021/10/17 02:08:19;;;;;;;;;;;6.60;99.90;;;;;;4997691;28;20344;-75
2021/10/17 02:10:45;;;;;;;;;;;6.60;99.90;;;;;;5015385;28;19905;-75
2021/10/17 02:13:10;;;;;;;;;;;6.50;99.90;;;;;;5015295;28;20349;-75
2021/10/17 02:15:36;;;;;;;;;;;6.30;99.90;;;;;;5014991;28;19916;-75
2021/10/17 02:18:02;;;;;;;;;;;6.30;99.90;;;;;;4997539;28;19992;-75
2021/10/17 02:20:32;;;;;;;;;;;6.40;99.90;;;;;;5015155;28;19905;-75
2021/10/17 02:22:59;;;;;;;;;;;6.40;99.90;;;;;;5015184;28;19913;-75
2021/10/17 02:25:25;;;;;;;;;;;6.40;99.90;;;;;;5014968;28;19945;-75
2021/10/17 02:27:50;;;;;;;;;;;6.40;99.90;;;;;;4997437;28;19936;-75
2021/10/17 02:30:16;;;;;;;;;;;6.40;99.90;;;;;;5014519;28;19959;-75
2021/10/17 02:32:42;;;;;;;;;;;6.30;99.90;;;;;;4997362;28;19989;-75
2021/10/17 02:35:07;;;;;;;;;;;6.30;99.90;;;;;;4997151;28;20250;-75
2021/10/17 02:37:33;;;;;;;;;;;6.30;99.90;;;;;;4997250;28;19905;-75
2021/10/17 02:39:59;;;;;;;;;;;6.30;99.90;;;;;;5014760;28;19909;-74
2021/10/17 02:42:24;;;;;;;;;;;6.30;99.90;;;;;;5014667;28;19916;-75
2021/10/17 02:44:50;;;;;;;;;;;6.30;99.90;;;;;;5014584;28;19909;-75
2021/10/17 02:47:16;;;;;;;;;;;6.20;99.90;;;;;;4997141;28;19905;-75
2021/10/17 02:49:42;;;;;;;;;;;6.30;99.90;;;;;;5014569;28;19980;-75
2021/10/17 02:52:08;;;;;;;;;;;6.30;99.90;;;;;;5014618;28;19906;-75
2021/10/17 02:54:34;;;;;;;;;;;6.40;99.90;;;;;;4996934;28;20427;-75
2021/10/17 02:56:59;;;;;;;;;;;6.50;99.90;;;;;;4980559;28;19905;-74
2021/10/17 02:59:25;;;;;;;;;;;6.50;99.90;;;;;;5014277;28;19960;-74
2021/10/17 03:01:51;;;;;;;;;;;6.60;99.90;;;;;;5014229;28;19917;-75
2021/10/17 03:04:17;;;;;;;;;;;6.60;99.90;;;;;;5014274;28;19964;-75
2021/10/17 03:06:42;;;;;;;;;;;6.70;99.90;;;;;;4996592;28;19906;-75
2021/10/17 03:09:08;;;;;;;;;;;6.60;99.90;;;;;;5014257;28;19909;-75
2021/10/17 03:11:35;;;;;;;;;;;6.60;99.90;;;;;;5014069;28;20034;-75
2021/10/17 03:14:01;;;;;;;;;;;6.60;99.90;;;;;;5014120;28;20354;-75
2021/10/17 03:16:27;;;;;;;;;;;6.80;99.90;;;;;;5013817;28;20369;-75
2021/10/17 03:18:52;;;;;;;;;;;6.70;99.90;;;;;;5014013;28;19913;-75
2021/10/17 03:21:18;;;;;;;;;;;6.70;99.90;;;;;;5014108;28;19913;-75
2021/10/17 03:23:44;;;;;;;;;;;6.60;99.90;;;;;;5013870;28;19956;-75
2021/10/17 03:26:09;;;;;;;;;;;6.50;99.90;;;;;;5013739;28;19905;-75
2021/10/17 03:28:35;;;;;;;;;;;6.50;99.90;;;;;;4996168;28;19905;-75
2021/10/17 03:31:05;;;;;;;;;;;6.40;99.90;;;;;;4996221;28;19912;-75
2021/10/17 03:33:31;;;;;;;;;;;6.30;99.90;;;;;;4996304;28;19912;-75
2021/10/17 03:35:56;;;;;;;;;;;6.30;99.90;;;;;;4996004;28;20373;-74
2021/10/17 03:38:22;;;;;;;;;;;6.20;99.90;;;;;;5013591;28;19906;-75
2021/10/17 03:40:47;;;;;;;;;;;6.20;99.90;;;;;;5013619;28;19910;-75
2021/10/17 03:43:13;;;;;;;;;;;6.30;99.90;;;;;;4995214;28;19963;-75
2021/10/17 03:45:39;;;;;;;;;;;6.40;99.90;;;;;;5013364;28;19971;-75
2021/10/17 03:48:06;;;;;;;;;;;6.50;99.90;;;;;;4979493;28;20441;-75
2021/10/17 03:50:31;;;;;;;;;;;6.60;99.90;;;;;;4979549;28;19905;-75
2021/10/17 03:52:57;;;;;;;;;;;6.60;99.90;;;;;;5013397;28;19913;-75
2021/10/17 03:55:23;;;;;;;;;;;6.50;99.90;;;;;;4995679;28;20230;-75
2021/10/17 03:57:48;;;;;;;;;;;6.50;99.90;;;;;;4995734;28;19912;-75
2021/10/17 04:00:14;;;;;;;;;;;6.50;99.90;;;;;;4995986;28;19905;-75
2021/10/17 04:02:40;;;;;;;;;;;6.60;99.90;;;;;;5013213;28;19909;-75
2021/10/17 04:05:05;;;;;;;;;;;6.70;99.90;;;;;;5013090;28;19988;-75
2021/10/17 04:07:31;;;;;;;;;;;6.70;99.90;;;;;;5013177;28;20304;-74
2021/10/17 04:09:57;;;;;;;;;;;6.80;99.90;;;;;;5013147;28;20270;-75
2021/10/17 04:12:23;;;;;;;;;;;6.60;99.90;;;;;;5013241;28;19909;-75
2021/10/17 04:14:48;;;;;;;;;;;6.70;99.90;;;;;;4995406;28;19945;-75
2021/10/17 04:17:14;;;;;;;;;;;6.80;99.90;;;;;;5013138;28;19906;-75
2021/10/17 04:19:39;;;;;;;;;;;6.90;99.90;;;;;;5012978;28;19912;-75
2021/10/17 04:22:05;;;;;;;;;;;6.80;99.90;;;;;;5012750;28;19964;-75
2021/10/17 04:24:31;;;;;;;;;;;6.70;99.90;;;;;;4978862;28;19952;-75
2021/10/17 04:26:56;;;;;;;;;;;6.60;99.90;;;;;;5012840;28;19963;-75
2021/10/17 04:29:22;;;;;;;;;;;6.30;99.90;;;;;;5012957;28;19906;-75
2021/10/17 04:31:47;;;;;;;;;;;6.40;99.90;;;;;;5012780;28;20004;-75
2021/10/17 04:34:13;;;;;;;;;;;6.30;99.90;;;;;;4995183;28;20358;-75
2021/10/17 04:36:39;;;;;;;;;;;6.30;99.90;;;;;;4978658;28;19905;-75
2021/10/17 04:39:06;;;;;;;;;;;6.10;99.90;;;;;;4994982;28;20254;-75
2021/10/17 04:41:32;;;;;;;;;;;6.10;99.90;;;;;;4995141;28;20388;-75
2021/10/17 04:43:58;;;;;;;;;;;6.30;99.90;;;;;;5012605;28;19928;-75
2021/10/17 04:46:24;;;;;;;;;;;6.30;99.90;;;;;;4994891;28;19905;-75
2021/10/17 04:48:49;;;;;;;;;;;6.30;99.90;;;;;;5012549;28;19906;-75
2021/10/17 04:51:15;;;;;;;;;;;6.20;99.90;;;;;;5012538;28;19906;-75
2021/10/17 04:53:40;;;;;;;;;;;6.30;99.90;;;;;;4994877;28;19906;-74
2021/10/17 04:56:06;;;;;;;;;;;6.30;99.90;;;;;;4994769;28;19920;-75
2021/10/17 04:58:32;;;;;;;;;;;6.10;99.90;;;;;;4994811;28;19906;-75
2021/10/17 05:00:57;;;;;;;;;;;6.10;99.90;;;;;;5012501;28;20254;-75
2021/10/17 05:03:23;;;;;;;;;;;6.10;99.90;;;;;;4994849;28;19909;-75
2021/10/17 05:05:49;;;;;;;;;;;6.10;99.90;;;;;;4994721;28;19905;-75
2021/10/17 05:08:15;;;;;;;;;;;6.00;99.90;;;;;;4994683;28;20009;-75
2021/10/17 05:10:41;;;;;;;;;;;5.90;99.90;;;;;;5012361;28;19963;-75
2021/10/17 05:13:06;;;;;;;;;;;5.90;99.90;;;;;;4994738;28;20407;-75
2021/10/17 05:15:32;;;;;;;;;;;5.80;99.90;;;;;;5012474;28;20277;-75
2021/10/17 05:17:58;;;;;;;;;;;5.70;99.90;;;;;;5012244;28;19909;-75
2021/10/17 05:20:23;;;;;;;;;;;5.60;99.90;;;;;;5012410;28;20298;-75
2021/10/17 05:22:49;;;;;;;;;;;5.60;99.90;;;;;;5012103;28;19917;-75
2021/10/17 05:25:15;;;;;;;;;;;5.60;99.90;;;;;;4994357;28;19905;-75
2021/10/17 05:27:40;;;;;;;;;;;5.70;99.90;;;;;;5012128;28;19905;-75
2021/10/17 05:30:06;;;;;;;;;;;5.60;99.90;;;;;;4994720;28;19910;-75
2021/10/17 05:32:32;;;;;;;;;;;5.60;99.90;;;;;;5012149;28;19905;-75
2021/10/17 05:34:57;;;;;;;;;;;5.60;99.90;;;;;;5011941;28;19909;-75
2021/10/17 05:37:23;;;;;;;;;;;5.60;99.90;;;;;;5012254;28;19909;-75
2021/10/17 05:39:49;;;;;;;;;;;5.40;99.90;;;;;;5012026;28;19964;-75
2021/10/17 05:42:14;;;;;;;;;;;5.50;99.90;;;;;;4994578;28;19913;-75
2021/10/17 05:44:40;;;;;;;;;;;5.60;99.90;;;;;;5011802;28;19909;-75
2021/10/17 05:47:06;;;;;;;;;;;5.50;99.90;;;;;;5012037;28;20433;-74
2021/10/17 05:49:31;;;;;;;;;;;5.50;99.90;;;;;;5012194;28;20043;-75
2021/10/17 05:51:57;;;;;;;;;;;5.60;99.90;;;;;;5012114;28;20104;-75
2021/10/17 05:54:23;;;;;;;;;;;5.60;99.90;;;;;;5011868;28;19912;-75
2021/10/17 05:56:48;;;;;;;;;;;5.60;99.90;;;;;;4994367;28;19906;-75
2021/10/17 05:59:14;;;;;;;;;;;5.60;99.90;;;;;;5012228;28;20369;-75
2021/10/17 06:01:39;;;;;;;;;;;5.40;99.90;;;;;;4994255;28;20361;-75
2021/10/17 06:04:05;;;;;;;;;;;5.60;99.90;;;;;;5012008;28;19905;-75
2021/10/17 06:06:31;;;;;;;;;;;5.80;99.90;;;;;;5014651;28;19997;-75
2021/10/17 06:08:58;;;;;;;;;;;5.70;99.90;;;;;;4997742;28;19971;-75
2021/10/17 06:11:24;;;;;;;;;;;5.90;99.90;;;;;;5015312;28;19912;-75
2021/10/17 06:13:49;;;;;;;;;;;5.80;99.90;;;;;;5015349;28;19988;-75
2021/10/17 06:16:15;;;;;;;;;;;5.80;99.90;;;;;;4997508;28;19959;-75
2021/10/17 06:18:41;;;;;;;;;;;5.90;99.90;;;;;;5015123;28;19905;-75
2021/10/17 06:21:07;;;;;;;;;;;6.00;99.90;;;;;;4981288;28;19909;-72
2021/10/17 06:23:33;;;;;;;;;;;6.00;99.90;;;;;;4997346;28;19913;-74
2021/10/17 06:25:59;;;;;;;;;;;6.10;99.90;;;;;;4981074;28;19906;-74
2021/10/17 06:28:25;;;;;;;;;;;6.00;99.90;;;;;;4997464;28;19947;-73
2021/10/17 06:30:51;;;;;;;;;;;6.10;99.90;;;;;;5014826;28;19917;-73
2021/10/17 06:33:16;;;;;;;;;;;6.30;99.90;;;;;;5014768;28;19909;-73
2021/10/17 06:35:42;;;;;;;;;;;6.40;99.90;;;;;;5014557;28;19960;-73
2021/10/17 06:38:08;;;;;;;;;;;6.60;99.90;;;;;;5014600;28;20012;-73
2021/10/17 06:40:33;;;;;;;;;;;6.60;99.90;;;;;;5014798;28;19905;-72
2021/10/17 06:42:59;;;;;;;;;;;6.40;99.90;;;;;;5014750;28;20430;-73
2021/10/17 06:45:24;;;;;;;;;;;6.40;99.90;;;;;;5014469;28;20036;-73
2021/10/17 06:47:51;;;;;;;;;;;6.30;99.90;;;;;;4996874;28;19909;-73
2021/10/17 06:50:20;;;;;;;;;;;6.30;99.90;;;;;;5014504;28;19945;-73
2021/10/17 06:52:46;;;;;;;;;;;6.40;99.90;;;;;;5011879;28;19906;-73
2021/10/17 06:55:12;;;;;;;;;;;6.50;99.90;;;;;;5014030;28;20289;-73
2021/10/17 06:57:37;;;;;;;;;;;6.60;99.90;;;;;;5014252;28;19909;-73
2021/10/17 07:00:04;;;;;;;;;;;6.80;99.90;;;;;;4980661;28;19905;-73
2021/10/17 07:02:30;;;;;;;;;;;7.00;99.90;;;;;;5014319;28;19932;-73
2021/10/17 07:04:55;;;;;;;;;;;7.10;99.90;;;;;;5013957;28;19906;-73
2021/10/17 07:07:21;;;;;;;;;;;7.20;99.90;;;;;;5014066;28;19928;-73
2021/10/17 07:09:46;;;;;;;;;;;7.30;99.90;;;;;;5013905;28;19949;-73
2021/10/17 07:12:12;;;;;;;;;;;7.40;99.90;;;;;;5013972;28;19996;-73
2021/10/17 07:14:38;;;;;;;;;;;7.50;99.90;;;;;;5013688;28;20431;-73
2021/10/17 07:17:03;;;;;;;;;;;7.60;99.90;;;;;;5012850;28;19905;-73
2021/10/17 07:19:29;;;;;;;;;;;7.70;99.90;;;;;;5013794;28;20365;-73
2021/10/17 07:21:55;;;;;;;;;;;7.70;99.90;;;;;;4996425;28;19927;-73
2021/10/17 07:24:21;;;;;;;;;;;7.90;99.90;;;;;;5012415;28;19995;-73
2021/10/17 07:26:47;;;;;;;;;;;8.00;99.90;;;;;;4995712;28;20028;-74
2021/10/17 07:29:12;;;;;;;;;;;8.10;99.90;;;;;;5012923;28;20353;-73
2021/10/17 07:31:38;;;;;;;;;;;8.20;99.90;;;;;;5013259;28;19984;-73
2021/10/17 07:34:04;;;;;;;;;;;8.40;99.90;;;;;;4995951;28;19906;-73
2021/10/17 07:36:29;;;;;;;;;;;8.50;99.90;;;;;;4995842;28;20349;-74
2021/10/17 07:38:55;;;;;;;;;;;8.60;99.90;;;;;;5013511;28;19912;-73
2021/10/17 07:41:21;;;;;;;;;;;8.70;99.90;;;;;;4995936;28;19912;-74
2021/10/17 07:43:47;;;;;;;;;;;8.80;99.90;;;;;;5013652;28;19913;-73
2021/10/17 07:46:12;;;;;;;;;;;8.90;99.90;;;;;;5013275;28;19905;-74
2021/10/17 07:48:41;;;;;;;;;;;8.90;99.90;;;;;;4995700;28;20373;-73
2021/10/17 07:51:07;;;;;;;;;;;9.00;99.90;;;;;;4995734;28;20063;-74
2021/10/17 07:53:33;;;;;;;;;;;9.00;99.90;;;;;;5013243;28;19905;-73
2021/10/17 07:55:58;;;;;;;;;;;9.20;99.90;;;;;;4995462;28;20019;-73
2021/10/17 07:58:25;;;;;;;;;;;9.30;99.90;;;;;;5013197;28;19905;-74
2021/10/17 08:00:51;;;;;;;;;;;9.30;99.90;;;;;;4995526;28;19909;-74
2021/10/17 08:03:17;;;;;;;;;;;9.50;99.90;;;;;;4995298;28;19979;-74
2021/10/17 08:05:43;;;;;;;;;;;9.50;99.90;;;;;;5012841;28;19959;-73
2021/10/17 08:08:08;;;;;;;;;;;9.60;99.90;;;;;;5012860;28;19960;-73
2021/10/17 08:10:34;;;;;;;;;;;9.60;99.90;;;;;;5010191;28;20389;-73
2021/10/17 08:13:01;;;;;;;;;;;9.70;99.90;;;;;;4995154;28;19906;-73
2021/10/17 08:15:27;;;;;;;;;;;9.80;99.90;;;;;;5012616;28;19909;-73
2021/10/17 08:17:54;;;;;;;;;;;9.80;99.90;;;;;;4994893;28;20384;-73
2021/10/17 08:20:20;;;;;;;;;;;9.90;99.90;;;;;;5012775;28;19905;-74
2021/10/17 08:22:45;;;;;;;;;;;10.00;99.90;;;;;;5012731;28;19967;-73
2021/10/17 08:25:11;;;;;;;;;;;10.10;99.90;;;;;;5012626;28;19967;-74
2021/10/17 08:27:39;;;;;;;;;;;10.20;99.90;;;;;;5012258;28;19909;-74
2021/10/17 08:30:05;;;;;;;;;;;10.40;99.90;;;;;;4995036;28;20002;-73
2021/10/17 08:32:31;;;;;;;;;;;10.60;99.90;;;;;;5012861;28;19913;-74
2021/10/17 08:34:56;;;;;;;;;;;10.70;99.90;;;;;;5012449;28;19909;-73
2021/10/17 08:37:22;;;;;;;;;;;10.70;99.90;;;;;;5012645;28;19905;-73
2021/10/17 08:39:48;;;;;;;;;;;10.70;99.90;;;;;;5012438;28;20383;-74
2021/10/17 08:42:13;;;;;;;;;;;10.80;99.90;;;;;;5012570;28;19909;-73
2021/10/17 08:44:39;;;;;;;;;;;10.80;99.90;;;;;;4994831;28;19909;-73
2021/10/17 08:47:04;;;;;;;;;;;10.80;99.90;;;;;;5012400;28;19905;-74
2021/10/17 08:49:30;;;;;;;;;;;11.00;99.90;;;;;;5012442;28;19952;-74
2021/10/17 08:51:56;;;;;;;;;;;11.10;99.90;;;;;;5012468;28;19929;-73
2021/10/17 08:54:22;;;;;;;;;;;11.20;99.90;;;;;;5012381;28;20270;-73
2021/10/17 08:56:47;;;;;;;;;;;11.40;99.90;;;;;;4978376;28;19905;-73
2021/10/17 08:59:13;;;;;;;;;;;11.50;99.90;;;;;;4994832;28;20393;-73
2021/10/17 09:01:40;;;;;;;;;;;11.60;99.90;;;;;;5012295;28;20361;-73
2021/10/17 09:04:07;;;;;;;;;;;11.70;99.90;;;;;;5012326;28;19914;-76
2021/10/17 09:06:34;;;;;;;;;;;11.80;99.90;;;;;;5013397;28;19905;-73
2021/10/17 09:09:03;;;;;;;;;;;12.00;99.90;;;;;;4995721;28;19906;-73
2021/10/17 09:11:42;;;;;;;;;;;12.20;99.90;;;;;;5012309;28;19906;-73
2021/10/17 09:14:09;;;;;;;;;;;12.40;99.90;;;;;;5012123;28;19905;-73
2021/10/17 09:16:39;;;;;;;;;;;12.80;99.90;;;;;;4994443;28;20361;-73
2021/10/17 09:19:06;;;;;;;;;;;13.20;99.90;;;;;;4994225;28;19945;-73
2021/10/17 09:21:32;;;;;;;;;;;13.70;99.90;;;;;;4994374;28;20361;-71
2021/10/17 09:23:58;;;;;;;;;;;14.10;99.90;;;;;;5012146;28;19913;-74
2021/10/17 09:26:23;;;;;;;;;;;14.40;99.90;;;;;;5012094;28;20362;-74
2021/10/17 09:28:50;;;;;;;;;;;14.80;99.90;;;;;;5012275;28;19968;-73
2021/10/17 09:31:17;;;;;;;;;;;15.00;99.90;;;;;;5012246;28;19937;-73
2021/10/17 09:33:47;;;;;;;;;;;15.50;99.60;;;;;;5012009;28;20008;-74
2021/10/17 09:36:20;;;;;;;;;;;15.60;96.10;;;;;;5012204;28;19917;-74
2021/10/17 09:38:48;;;;;;;;;;;16.10;95.40;;;;;;5012071;28;20306;-74
2021/10/17 09:41:19;;;;;;;;;;;16.20;92.80;;;;;;5014552;28;20400;-78
2021/10/17 09:43:55;;;;;;;;;;;16.50;91.40;;;;;;4998161;28;20399;-73
2021/10/17 09:46:21;;;;;;;;;;;16.60;90.30;;;;;;5015606;28;19916;-73
2021/10/17 09:48:47;;;;;;;;;;;16.70;87.40;;;;;;5015604;28;19906;-74
2021/10/17 09:51:14;;;;;;;;;;;16.80;87.80;;;;;;5015952;28;19999;-71
2021/10/17 09:53:40;;;;;;;;;;;16.90;84.50;;;;;;5015931;28;19909;-71
2021/10/17 09:56:06;;;;;;;;;;;16.50;86.40;;;;;;5015360;28;19912;-72
2021/10/17 09:58:32;;;;;;;;;;;16.60;87.20;;;;;;5015516;28;19947;-71
2021/10/17 10:00:58;;;;;;;;;;;16.90;86.00;;;;;;5015440;28;20012;-72
2021/10/17 10:03:24;;;;;;;;;;;17.30;84.40;;;;;;5015462;28;20238;-72
2021/10/17 10:05:50;;;;;;;;;;;17.70;82.80;;;;;;5015395;28;19906;-72
2021/10/17 10:08:21;;;;;;;;;;;17.90;80.60;;;;;;5015352;28;19906;-71
2021/10/17 10:10:50;;;;;;;;;;;18.10;79.90;;;;;;4998080;28;19909;-70
2021/10/17 10:13:17;;;;;;;;;;;18.10;78.90;;;;;;5015412;28;20005;-71
2021/10/17 10:15:43;;;;;;;;;;;18.40;78.10;;;;;;5014795;28;20293;-70
2021/10/17 10:18:11;;;;;;;;;;;18.50;75.80;;;;;;5014893;28;19905;-73
2021/10/17 10:20:36;;;;;;;;;;;19.10;74.30;;;;;;5015241;28;19996;-73
2021/10/17 10:23:02;;;;;;;;;;;19.50;72.70;;;;;;5014960;28;19996;-73
2021/10/17 10:25:28;;;;;;;;;;;19.50;71.70;;;;;;5014896;28;19992;-73
2021/10/17 10:27:54;;;;;;;;;;;19.80;70.80;;;;;;5014921;28;19992;-73
2021/10/17 13:49:04;;;;;;;0.10;0.10;;;18.10;60.60;;;;;;5109873;27;20392;-73
2021/10/17 13:51:32;;;;;;;10.02;8.75;;;18.00;62.60;;;;;;5109585;28;20034;-73
2021/10/17 13:53:58;;;;;;;0.10;0.10;;;17.90;62.60;;;;;;5109672;28;20429;-76
2021/10/17 13:56:24;;;;;;;0.10;0.10;;;18.00;63.40;;;;;;5108359;28;20421;-74
2021/10/17 13:58:50;;;;;;;1.08;0.40;;;18.30;63.80;;;;;;5109531;28;20031;-74
2021/10/17 14:01:17;;;;;;;1.70;1.60;;;18.40;63.40;;;;;;5108356;28;20104;-76
2021/10/17 14:03:42;;;;;;;0.20;0.20;;;18.40;63.30;;;;;;5108292;28;20055;-75
2021/10/17 14:06:09;;;;;;;0.10;0.10;;;18.20;64.30;;;;;;5109230;28;20526;-75
2021/10/17 14:08:35;;;;;;;7.68;5.38;;;18.40;63.40;;;;;;5109032;28;20031;-74
2021/10/17 14:11:01;;;;;;;0.20;0.20;;;18.00;63.40;;;;;;5109279;28;20023;-76
2021/10/17 14:13:28;;;;;;;0.30;0.30;;;17.80;64.20;;;;;;5109310;28;20028;-75
2021/10/17 14:15:53;;;;;;;0.15;0.15;;;17.70;65.20;;;;;;5108943;28;20028;-74
2021/10/17 14:18:19;;;;;;;0.13;0.13;;;17.80;65.10;;;;;;5107343;28;20110;-76
2021/10/17 14:20:46;;;;;;;0.20;0.20;;;17.90;64.50;;;;;;5109263;28;20127;-78
2021/10/17 14:23:12;;;;;;;0.10;0.10;;;17.90;64.20;;;;;;5108125;28;20028;-74
2021/10/17 14:25:38;;;;;;;0.30;0.30;;;18.10;64.20;;;;;;5108826;28;20027;-74
2021/10/17 14:28:04;;;;;;;0.45;0.45;;;18.00;63.60;;;;;;5108699;28;20064;-74
2021/10/17 14:30:30;;;;;;;0.10;0.10;;;17.70;64.30;;;;;;5108935;28;20077;-74
2021/10/17 14:32:55;;;;;;;0.43;0.40;;;17.70;65.40;;;;;;5090532;28;20405;-74
2021/10/17 14:35:21;;;;;;;0.10;0.10;;;17.60;65.30;;;;;;5108552;28;20020;-73
2021/10/17 14:37:47;;;;;;;0.47;0.47;;;17.40;66.90;;;;;;5108675;28;20028;-73
2021/10/17 14:40:13;;;;;;;0.10;0.10;;;17.40;72.80;;;;;;5107281;28;20030;-73
2021/10/17 14:42:40;;;;;;;0.10;0.10;;;17.30;74.70;;;;;;5108589;28;20540;-73
2021/10/17 14:45:07;;;;;;;0.20;0.20;;;17.20;75.70;;;;;;5106929;28;20391;-74
2021/10/17 14:47:33;;;;;;;0.80;0.80;;;17.10;76.60;;;;;;5108262;28;20024;-73
2021/10/17 14:49:59;;;;;;;0.30;0.30;;;17.00;77.50;;;;;;5107201;28;20024;-73
2021/10/17 14:52:26;;;;;;;0.35;0.35;;;16.80;78.00;;;;;;5107250;28;20020;-73
2021/10/17 14:54:52;;;;;;;0.35;0.35;;;16.70;77.90;;;;;;5108246;28;20020;-74
2021/10/17 14:57:18;;;;;;;0.10;0.10;;;16.40;79.50;;;;;;5108373;28;20077;-74
2021/10/17 14:59:44;;;;;;;0.98;0.98;;;16.50;80.20;;;;;;5095095;28;20031;-73
2021/10/17 15:02:09;;;;;;;0.75;0.75;;;16.40;80.50;;;;;;5091698;28;20028;-73
2021/10/17 15:04:35;;;;;;;0.20;0.20;;;16.50;80.80;;;;;;5092908;28;20115;-73
2021/10/17 15:07:01;;;;;;;0.63;0.63;;;16.60;80.20;;;;;;5092046;28;20055;-73
2021/10/17 15:09:29;;;;;;;2.15;1.70;;;16.60;80.30;;;;;;5074421;28;20424;-73
2021/10/17 15:11:55;;;;;;;0.20;0.20;;;16.60;81.00;;;;;;5093442;28;20035;-73
2021/10/17 15:14:22;;;;;;;1.63;1.52;;;16.50;80.70;;;;;;5092618;28;20022;-73
2021/10/17 15:16:48;;;;;;;0.20;0.20;;;16.20;82.30;;;;;;5093015;28;20032;-73
2021/10/17 15:19:14;;;;;;;0.25;0.25;;;16.10;82.70;;;;;;5092681;28;20036;-72
2021/10/17 15:21:40;;;;;;;0.30;0.30;;;16.10;83.30;;;;;;5074750;28;20028;-73
2021/10/17 15:24:06;;;;;;;0.30;0.30;;;16.10;83.50;;;;;;5074313;28;20058;-73
2021/10/17 15:26:32;;;;;;;0.15;0.15;;;16.00;83.90;;;;;;5092963;28;20048;-73
2021/10/17 15:28:58;;;;;;;2.22;2.03;;;15.90;85.10;;;;;;5091940;28;20518;-73
2021/10/17 15:31:24;;;;;;;0.17;0.17;;;15.90;85.20;;;;;;5092473;28;20051;-73
2021/10/17 15:33:50;;;;;;;0.43;0.43;;;15.90;84.80;;;;;;5091974;28;20047;-73
2021/10/17 15:36:16;;;;;;;0.68;0.68;;;15.80;85.30;;;;;;5092354;28;20035;-73
2021/10/17 15:38:41;;;;;;;0.15;0.15;;;15.70;85.20;;;;;;5092589;28;20016;-73
2021/10/17 15:41:11;;;;;;;0.20;0.20;;;15.50;86.00;;;;;;5091146;28;20456;-73
2021/10/17 15:43:37;;;;;;;3.97;0.93;;;15.50;86.10;;;;;;5092359;28;20032;-73
2021/10/17 15:46:03;;;;;;;0.20;0.20;;;15.40;86.50;;;;;;5090694;28;20507;-73
2021/10/17 15:48:28;;;;;;;0.98;0.98;;;15.40;87.10;;;;;;5074354;28;20111;-73
2021/10/17 15:50:54;;;;;;;1.25;1.15;;;15.30;86.70;;;;;;5091846;28;20479;-73
2021/10/17 15:53:20;;;;;;;0.10;0.10;;;15.30;88.60;;;;;;5092681;28;20032;-74
2021/10/17 15:55:46;;;;;;;0.13;0.13;;;15.30;88.50;;;;;;5090536;28;20068;-73
2021/10/17 15:58:12;;;;;;;0.17;0.17;;;15.30;88.90;;;;;;5091173;28;20068;-73
2021/10/17 16:00:39;;;;;;;0.20;0.20;;;15.30;88.90;;;;;;5091941;28;20028;-73
2021/10/17 16:03:05;;;;;;;0.20;0.20;;;15.30;88.90;;;;;;5092275;28;20069;-73
2021/10/17 16:05:31;;;;;;;0.30;0.30;;;15.30;89.20;;;;;;5091349;28;20484;-73
2021/10/17 16:07:57;;;;;;;0.20;0.20;;;15.30;89.20;;;;;;5072301;28;20502;-73
2021/10/17 16:10:22;;;;;;;0.68;0.68;;;15.20;90.10;;;;;;5084413;28;20028;-73
2021/10/17 16:12:48;;;;;;;0.88;0.88;;;15.20;90.10;;;;;;5089754;28;20028;-73
2021/10/17 16:15:14;;;;;;;0.65;0.52;;;15.10;90.00;;;;;;5090730;28;20057;-73
2021/10/17 16:17:40;;;;;;;0.20;0.20;;;15.00;90.40;;;;;;5073340;28;20396;-73
2021/10/17 16:20:07;;;;;;;0.20;0.20;;;14.90;90.90;;;;;;5077618;28;20021;-73
2021/10/17 16:22:34;;;;;;;0.10;0.10;;;14.80;91.10;;;;;;5088658;28;20031;-73
2021/10/17 16:25:00;;;;;;;0.20;0.20;;;14.80;91.50;;;;;;5078014;28;20024;-73
2021/10/17 16:27:31;;;;;;;0.20;0.20;;;14.90;91.80;;;;;;5087994;28;20028;-73
2021/10/17 16:29:57;;;;;;;0.20;0.20;;;14.90;91.80;;;;;;5089222;28;20826;-73
2021/10/17 16:32:31;;;;;;;0.40;0.40;;;14.90;92.00;;;;;;5090853;28;20054;-73
2021/10/17 16:34:57;;;;;;;0.20;0.20;;;14.90;92.00;;;;;;5090766;28;20020;-73
2021/10/17 16:37:23;;;;;;;0.40;0.40;;;14.80;92.40;;;;;;5091112;28;20418;-73
2021/10/17 16:39:48;;;;;;;0.20;0.20;;;14.80;92.20;;;;;;5091619;28;20101;-73
2021/10/17 16:42:14;;;;;;;0.20;0.20;;;14.90;92.30;;;;;;5090912;28;20079;-74
2021/10/17 16:44:40;;;;;;;0.20;0.20;;;14.80;92.20;;;;;;5091107;28;20028;-73
2021/10/17 16:47:06;;;;;;;0.20;0.20;;;14.80;92.50;;;;;;5089488;28;20421;-73
2021/10/17 16:49:32;;;;;;;2.50;2.40;;;14.80;92.50;;;;;;5092496;28;20088;-73
2021/10/17 16:51:58;;;;;;;0.20;0.20;;;14.70;92.20;;;;;;5090959;28;20069;-73
2021/10/17 16:54:28;;;;;;;0.20;0.20;;;14.70;92.80;;;;;;5092278;28;20051;-73
2021/10/17 16:56:54;;;;;;;0.30;0.30;;;14.60;93.10;;;;;;5092304;28;20020;-73
2021/10/17 16:59:20;;;;;;;0.20;0.20;;;14.50;93.10;;;;;;5090999;28;20043;-73
2021/10/17 17:01:45;;;;;;;0.75;0.73;;;14.50;93.60;;;;;;5091122;28;20020;-73
2021/10/17 17:04:11;;;;;;;0.20;0.20;;;14.30;93.00;;;;;;5091095;28;20070;-73
2021/10/17 17:06:37;;;;;;;0.15;0.15;;;14.20;94.80;;;;;;5092033;28;20498;-73
2021/10/17 17:09:03;;;;;;;1.00;0.95;;;14.10;94.70;;;;;;5090852;28;20020;-73
2021/10/17 17:11:29;;;;;;;0.10;0.10;;;14.10;94.90;;;;;;5092280;28;20511;-73